createdAt,value
2022-09-21T00:00:25.959Z,8.98
2022-09-21T00:10:50.242Z,8.74
2022-09-21T00:21:14.288Z,8.85
2022-09-21T00:31:35.937Z,8.56
2022-09-21T00:41:57.466Z,8.51
2022-09-21T00:52:20.497Z,8.45
2022-09-21T01:02:42.960Z,8.42
2022-09-21T01:13:16.983Z,8.32
2022-09-21T01:24:00.961Z,8.33
2022-09-21T01:34:31.015Z,8.32
2022-09-21T01:44:55.589Z,8.31
2022-09-21T01:55:23.202Z,8.27
2022-09-21T02:05:45.533Z,8.12
2022-09-21T02:16:07.007Z,8.09
2022-09-21T02:26:45.411Z,7.98
2022-09-21T02:37:32.629Z,7.84
2022-09-21T02:48:00.117Z,7.83
2022-09-21T02:58:24.480Z,7.71
2022-09-21T03:08:45.923Z,7.79
2022-09-21T03:19:07.510Z,7.84
2022-09-21T03:29:29.038Z,7.68
2022-09-21T03:39:50.458Z,7.59
2022-09-21T03:50:12.045Z,7.56
2022-09-21T04:00:34.153Z,7.49
2022-09-21T04:10:56.399Z,7.43
2022-09-21T04:21:19.203Z,7.38
2022-09-21T04:31:41.426Z,7.32
2022-09-21T04:42:02.999Z,7.35
2022-09-21T04:52:24.505Z,7.40
2022-09-21T05:02:45.971Z,7.27
2022-09-21T05:13:07.547Z,7.34
2022-09-21T05:23:30.985Z,7.31
2022-09-21T05:33:58.731Z,7.32
2022-09-21T05:44:21.604Z,7.31
2022-09-21T05:55:01.910Z,7.25
2022-09-21T06:05:23.999Z,7.44
2022-09-21T06:15:46.242Z,7.72
2022-09-21T06:26:07.670Z,7.73
2022-09-21T06:36:29.663Z,7.68
2022-09-21T06:46:51.019Z,8.01
2022-09-21T06:57:12.462Z,7.98
2022-09-21T07:07:34.404Z,8.27
2022-09-21T07:18:05.537Z,8.61
2022-09-21T07:28:27.278Z,8.79
2022-09-21T07:38:48.712Z,9.09
2022-09-21T07:49:11.678Z,9.31
2022-09-21T07:59:33.209Z,9.63
2022-09-21T08:09:54.709Z,9.91
2022-09-21T08:20:16.255Z,10.62
2022-09-21T08:30:37.978Z,10.71
2022-09-21T08:41:01.657Z,11.07
2022-09-21T08:51:31.960Z,11.15
2022-09-21T09:02:24.579Z,11.37
2022-09-21T09:13:41.926Z,11.85
2022-09-21T09:24:11.177Z,12.01
2022-09-21T09:34:37.861Z,12.22
2022-09-21T09:45:02.307Z,12.46
2022-09-21T09:55:30.236Z,12.60
2022-09-21T10:05:53.686Z,12.76
2022-09-21T10:16:18.204Z,13.26
2022-09-21T10:27:12.377Z,13.20
2022-09-21T10:37:37.554Z,13.70
2022-09-21T10:48:18.241Z,14.00
2022-09-21T10:58:39.697Z,13.93
2022-09-21T11:09:08.945Z,14.23
2022-09-21T11:19:38.833Z,13.70
2022-09-21T11:30:09.613Z,14.14
2022-09-21T11:40:54.390Z,14.46
2022-09-21T11:51:39.446Z,14.56
2022-09-21T12:02:22.394Z,14.19
2022-09-21T12:12:49.601Z,14.03
2022-09-21T12:23:17.457Z,14.71
2022-09-21T12:33:46.925Z,14.69
2022-09-21T12:44:25.930Z,15.51
2022-09-21T12:54:59.568Z,15.41
2022-09-21T13:05:26.802Z,15.91
2022-09-21T13:15:50.126Z,15.39
2022-09-21T13:26:13.745Z,15.70
2022-09-21T13:36:36.535Z,15.72
2022-09-21T13:46:58.549Z,15.94
2022-09-21T13:57:32.120Z,15.79
2022-09-21T14:08:01.479Z,15.71
2022-09-21T14:18:37.626Z,15.69
2022-09-21T14:29:08.275Z,16.10
2022-09-21T14:39:33.575Z,15.77
2022-09-21T14:50:15.490Z,15.62
2022-09-21T15:00:43.422Z,15.50
2022-09-21T15:11:22.391Z,15.59
2022-09-21T15:21:52.404Z,16.08
2022-09-21T15:32:34.206Z,16.61
2022-09-21T15:43:01.571Z,16.69
2022-09-21T15:53:27.646Z,16.78
2022-09-21T16:04:02.280Z,17.43
2022-09-21T16:14:42.458Z,16.58
2022-09-21T16:25:37.225Z,15.65
2022-09-21T16:35:58.823Z,15.47
2022-09-21T16:46:20.357Z,15.11
2022-09-21T16:56:42.048Z,14.89
2022-09-21T17:07:06.879Z,14.56
2022-09-21T17:17:29.618Z,14.19
2022-09-21T17:27:53.040Z,13.87
2022-09-21T17:38:14.963Z,13.67
2022-09-21T17:48:39.291Z,13.47
2022-09-21T17:59:02.915Z,13.19
2022-09-21T18:09:24.781Z,13.04
2022-09-21T18:20:20.418Z,13.09
2022-09-21T18:30:50.598Z,12.81
2022-09-21T18:41:34.024Z,12.56
2022-09-21T18:52:28.029Z,12.28
2022-09-21T19:03:12.734Z,12.17
2022-09-21T19:13:41.242Z,12.01
2022-09-21T19:24:21.575Z,11.93
2022-09-21T19:34:43.822Z,11.64
2022-09-21T19:45:22.711Z,11.67
2022-09-21T19:56:03.864Z,11.52
2022-09-21T20:06:34.268Z,11.34
2022-09-21T20:17:00.846Z,11.27
2022-09-21T20:27:32.941Z,11.10
2022-09-21T20:37:58.622Z,10.90
2022-09-21T20:48:22.972Z,10.88
2022-09-21T20:58:44.430Z,10.78
2022-09-21T21:09:06.074Z,10.71
2022-09-21T21:19:27.769Z,10.50
2022-09-21T21:29:51.212Z,10.33
2022-09-21T21:40:12.733Z,10.37
2022-09-21T21:50:35.881Z,10.27
2022-09-21T22:01:08.077Z,10.09
2022-09-21T22:11:31.002Z,10.09
2022-09-21T22:21:54.411Z,9.94
2022-09-21T22:32:16.614Z,9.92
2022-09-21T22:42:37.960Z,9.76
2022-09-21T22:52:59.392Z,9.66
2022-09-21T23:03:20.844Z,9.72
2022-09-21T23:13:42.986Z,9.54
2022-09-21T23:24:05.378Z,9.47
2022-09-21T23:34:26.962Z,9.34
2022-09-21T23:44:48.394Z,9.29
2022-09-21T23:55:09.868Z,9.23
